sensor_id;sensor_type;location;lat;lon;timestamp;pressure;altitude;pressure_sealevel;temperature;humidity
48200;BME280;33990;44.602;10.976;2024-03-22T00:02:07;101552.50;;;20.34;60.11
48200;BME280;33990;44.602;10.976;2024-03-22T00:04:36;101554.22;;;20.35;60.08
48200;BME280;33990;44.602;10.976;2024-03-22T00:07:02;101556.91;;;20.35;60.01
48200;BME280;33990;44.602;10.976;2024-03-22T00:09:29;101554.22;;;20.35;60.01
48200;BME280;33990;44.602;10.976;2024-03-22T00:11:55;101560.44;;;20.35;59.94
48200;BME280;33990;44.602;10.976;2024-03-22T00:14:22;101564.13;;;20.34;59.78
48200;BME280;33990;44.602;10.976;2024-03-22T00:16:48;101559.59;;;20.35;59.84
48200;BME280;33990;44.602;10.976;2024-03-22T00:19:15;101564.97;;;20.35;59.64
48200;BME280;33990;44.602;10.976;2024-03-22T00:21:41;101558.75;;;20.34;59.43
48200;BME280;33990;44.602;10.976;2024-03-22T00:24:08;101556.06;;;20.34;59.63
48200;BME280;33990;44.602;10.976;2024-03-22T00:26:34;101557.88;;;20.34;59.52
48200;BME280;33990;44.602;10.976;2024-03-22T00:29:01;101556.91;;;20.35;59.47
48200;BME280;33990;44.602;10.976;2024-03-22T00:31:28;101561.44;;;20.34;59.63
48200;BME280;33990;44.602;10.976;2024-03-22T00:33:54;101563.28;;;20.34;59.13
48200;BME280;33990;44.602;10.976;2024-03-22T00:36:20;101565.97;;;20.34;58.85
48200;BME280;33990;44.602;10.976;2024-03-22T00:38:47;101564.97;;;20.35;59.92
48200;BME280;33990;44.602;10.976;2024-03-22T00:41:13;101556.16;;;20.33;59.58
48200;BME280;33990;44.602;10.976;2024-03-22T00:43:40;101557.00;;;20.33;59.97
48200;BME280;33990;44.602;10.976;2024-03-22T00:46:06;101561.44;;;20.34;60.37
48200;BME280;33990;44.602;10.976;2024-03-22T00:48:33;101563.28;;;20.34;60.81
48200;BME280;33990;44.602;10.976;2024-03-22T00:51:01;101556.06;;;20.34;61.56
48200;BME280;33990;44.602;10.976;2024-03-22T00:53:29;101555.91;;;20.36;61.60
48200;BME280;33990;44.602;10.976;2024-03-22T00:55:55;101552.25;;;20.37;61.68
48200;BME280;33990;44.602;10.976;2024-03-22T00:58:26;101546.16;;;20.35;61.01
48200;BME280;33990;44.602;10.976;2024-03-22T01:00:53;101552.50;;;20.34;60.76
48200;BME280;33990;44.602;10.976;2024-03-22T01:03:19;101552.50;;;20.34;60.50
48200;BME280;33990;44.602;10.976;2024-03-22T01:05:46;101553.47;;;20.33;60.45
48200;BME280;33990;44.602;10.976;2024-03-22T01:08:12;101552.50;;;20.34;60.48
48200;BME280;33990;44.602;10.976;2024-03-22T01:10:38;101557.13;;;20.32;60.45
48200;BME280;33990;44.602;10.976;2024-03-22T01:13:05;101554.44;;;20.32;60.39
48200;BME280;33990;44.602;10.976;2024-03-22T01:15:31;101558.13;;;20.31;60.30
48200;BME280;33990;44.602;10.976;2024-03-22T01:17:57;101556.41;;;20.30;60.38
48200;BME280;33990;44.602;10.976;2024-03-22T01:20:24;101564.34;;;20.31;60.32
48200;BME280;33990;44.602;10.976;2024-03-22T01:22:50;101556.41;;;20.30;60.22
48200;BME280;33990;44.602;10.976;2024-03-22T01:25:16;101556.41;;;20.30;60.17
48200;BME280;33990;44.602;10.976;2024-03-22T01:27:43;101562.75;;;20.29;60.01
48200;BME280;33990;44.602;10.976;2024-03-22T01:30:09;101561.91;;;20.28;60.15
48200;BME280;33990;44.602;10.976;2024-03-22T01:32:36;101566.44;;;20.28;60.07
48200;BME280;33990;44.602;10.976;2024-03-22T01:35:03;101571.81;;;20.28;60.23
48200;BME280;33990;44.602;10.976;2024-03-22T01:37:29;101566.44;;;20.28;60.24
48200;BME280;33990;44.602;10.976;2024-03-22T01:39:55;101569.13;;;20.28;60.09
48200;BME280;33990;44.602;10.976;2024-03-22T01:42:22;101563.88;;;20.26;60.11
48200;BME280;33990;44.602;10.976;2024-03-22T01:44:49;101568.41;;;20.25;60.02
48200;BME280;33990;44.602;10.976;2024-03-22T01:47:16;101573.78;;;20.25;60.08
48200;BME280;33990;44.602;10.976;2024-03-22T01:49:43;101572.78;;;20.27;60.06
48200;BME280;33990;44.602;10.976;2024-03-22T01:52:10;101568.41;;;20.25;60.07
48200;BME280;33990;44.602;10.976;2024-03-22T01:54:36;101570.19;;;20.25;60.15
48200;BME280;33990;44.602;10.976;2024-03-22T01:57:02;101567.50;;;20.25;60.27
48200;BME280;33990;44.602;10.976;2024-03-22T01:59:29;101571.19;;;20.24;60.04
48200;BME280;33990;44.602;10.976;2024-03-22T02:01:56;101563.97;;;20.24;60.01
48200;BME280;33990;44.602;10.976;2024-03-22T02:04:22;101564.09;;;20.23;60.03
48200;BME280;33990;44.602;10.976;2024-03-22T02:06:48;101564.94;;;20.23;60.27
48200;BME280;33990;44.602;10.976;2024-03-22T02:09:14;101558.72;;;20.23;60.56
48200;BME280;33990;44.602;10.976;2024-03-22T02:11:42;101552.50;;;20.22;60.79
48200;BME280;33990;44.602;10.976;2024-03-22T02:14:08;101556.03;;;20.23;60.75
48200;BME280;33990;44.602;10.976;2024-03-22T02:16:35;101565.81;;;20.24;60.88
48200;BME280;33990;44.602;10.976;2024-03-22T02:19:01;101565.09;;;20.22;60.93
48200;BME280;33990;44.602;10.976;2024-03-22T02:21:27;101559.69;;;20.22;61.01
48200;BME280;33990;44.602;10.976;2024-03-22T02:23:53;101553.44;;;20.21;60.91
48200;BME280;33990;44.602;10.976;2024-03-22T02:26:20;101556.25;;;20.20;60.59
48200;BME280;33990;44.602;10.976;2024-03-22T02:28:46;101559.69;;;20.22;60.55
48200;BME280;33990;44.602;10.976;2024-03-22T02:31:12;101557.13;;;20.20;60.32
48200;BME280;33990;44.602;10.976;2024-03-22T02:33:39;101567.88;;;20.20;60.77
48200;BME280;33990;44.602;10.976;2024-03-22T02:36:05;101559.94;;;20.19;60.58
48200;BME280;33990;44.602;10.976;2024-03-22T02:38:31;101564.47;;;20.18;60.24
48200;BME280;33990;44.602;10.976;2024-03-22T02:40:58;101568.84;;;20.19;60.16
48200;BME280;33990;44.602;10.976;2024-03-22T02:43:24;101565.31;;;20.19;59.96
48200;BME280;33990;44.602;10.976;2024-03-22T02:45:50;101562.72;;;20.17;60.31
48200;BME280;33990;44.602;10.976;2024-03-22T02:48:17;101559.09;;;20.18;60.46
48200;BME280;33990;44.602;10.976;2024-03-22T02:50:43;101569.94;;;20.17;60.74
48200;BME280;33990;44.602;10.976;2024-03-22T02:53:09;101561.03;;;20.16;60.48
48200;BME280;33990;44.602;10.976;2024-03-22T02:55:38;101555.66;;;20.16;60.18
48200;BME280;33990;44.602;10.976;2024-03-22T02:58:05;101567.25;;;20.17;60.17
48200;BME280;33990;44.602;10.976;2024-03-22T03:00:35;101564.69;;;20.15;59.88
48200;BME280;33990;44.602;10.976;2024-03-22T03:03:02;101569.22;;;20.15;59.96
48200;BME280;33990;44.602;10.976;2024-03-22T03:05:28;101563.00;;;20.14;59.79
48200;BME280;33990;44.602;10.976;2024-03-22T03:07:55;101564.69;;;20.15;59.69
48200;BME280;33990;44.602;10.976;2024-03-22T03:10:21;101559.44;;;20.14;59.63
48200;BME280;33990;44.602;10.976;2024-03-22T03:12:48;101570.06;;;20.15;59.44
48200;BME280;33990;44.602;10.976;2024-03-22T03:15:14;101563.94;;;20.13;59.42
48200;BME280;33990;44.602;10.976;2024-03-22T03:17:40;101568.38;;;20.14;59.36
48200;BME280;33990;44.602;10.976;2024-03-22T03:20:06;101564.81;;;20.14;59.37
48200;BME280;33990;44.602;10.976;2024-03-22T03:22:34;101569.31;;;20.13;59.51
48200;BME280;33990;44.602;10.976;2024-03-22T03:25:01;101564.94;;;20.12;59.45
48200;BME280;33990;44.602;10.976;2024-03-22T03:27:27;101570.31;;;20.12;59.38
48200;BME280;33990;44.602;10.976;2024-03-22T03:29:55;101564.94;;;20.12;59.50
48200;BME280;33990;44.602;10.976;2024-03-22T03:32:21;101555.16;;;20.11;59.49
48200;BME280;33990;44.602;10.976;2024-03-22T03:34:47;101549.78;;;20.11;59.30
48200;BME280;33990;44.602;10.976;2024-03-22T03:37:14;101551.63;;;20.11;59.18
48200;BME280;33990;44.602;10.976;2024-03-22T03:39:40;101545.38;;;20.10;59.39
48200;BME280;33990;44.602;10.976;2024-03-22T03:42:06;101565.16;;;20.09;59.22
48200;BME280;33990;44.602;10.976;2024-03-22T03:44:33;101554.41;;;20.09;59.32
48200;BME280;33990;44.602;10.976;2024-03-22T03:47:02;101557.97;;;20.10;59.16
48200;BME280;33990;44.602;10.976;2024-03-22T03:49:29;101552.69;;;20.08;59.23
48200;BME280;33990;44.602;10.976;2024-03-22T03:51:55;101561.50;;;20.10;59.33
48200;BME280;33990;44.602;10.976;2024-03-22T03:54:21;101565.16;;;20.09;59.30
48200;BME280;33990;44.602;10.976;2024-03-22T03:56:48;101559.78;;;20.09;59.03
48200;BME280;33990;44.602;10.976;2024-03-22T03:59:14;101565.16;;;20.09;59.20
48200;BME280;33990;44.602;10.976;2024-03-22T04:01:40;101572.25;;;20.10;59.08
48200;BME280;33990;44.602;10.976;2024-03-22T04:04:06;101578.50;;;20.11;58.83
48200;BME280;33990;44.602;10.976;2024-03-22T04:06:33;101572.25;;;20.10;59.39
48200;BME280;33990;44.602;10.976;2024-03-22T04:09:00;101582.88;;;20.12;59.08
48200;BME280;33990;44.602;10.976;2024-03-22T04:11:26;101577.66;;;20.10;59.16
48200;BME280;33990;44.602;10.976;2024-03-22T04:13:53;101579.47;;;20.10;59.04
48200;BME280;33990;44.602;10.976;2024-03-22T04:16:19;101575.91;;;20.09;59.06
48200;BME280;33990;44.602;10.976;2024-03-22T04:18:46;101582.16;;;20.10;58.89
48200;BME280;33990;44.602;10.976;2024-03-22T04:21:12;101576.88;;;20.08;58.61
48200;BME280;33990;44.602;10.976;2024-03-22T04:23:38;101583.97;;;20.09;58.73
48200;BME280;33990;44.602;10.976;2024-03-22T04:26:04;101580.44;;;20.09;58.75
48200;BME280;33990;44.602;10.976;2024-03-22T04:28:31;101575.91;;;20.09;58.80
48200;BME280;33990;44.602;10.976;2024-03-22T04:31:02;101576.88;;;20.08;58.74
48200;BME280;33990;44.602;10.976;2024-03-22T04:33:29;101577.03;;;20.07;58.88
48200;BME280;33990;44.602;10.976;2024-03-22T04:35:56;101581.53;;;20.06;58.77
48200;BME280;33990;44.602;10.976;2024-03-22T04:38:23;101586.78;;;20.08;58.64
48200;BME280;33990;44.602;10.976;2024-03-22T04:40:50;101584.94;;;20.08;58.61
48200;BME280;33990;44.602;10.976;2024-03-22T04:43:17;101583.13;;;20.09;58.70
48200;BME280;33990;44.602;10.976;2024-03-22T04:45:44;101587.66;;;20.08;58.61
48200;BME280;33990;44.602;10.976;2024-03-22T04:48:13;101579.56;;;20.08;58.45
48200;BME280;33990;44.602;10.976;2024-03-22T04:50:39;101580.56;;;20.07;58.65
48200;BME280;33990;44.602;10.976;2024-03-22T04:53:06;101591.31;;;20.07;58.46
48200;BME280;33990;44.602;10.976;2024-03-22T04:55:32;101578.72;;;20.08;58.57
48200;BME280;33990;44.602;10.976;2024-03-22T04:57:59;101589.59;;;20.06;58.38
48200;BME280;33990;44.602;10.976;2024-03-22T05:00:25;101594.97;;;20.06;58.33
48200;BME280;33990;44.602;10.976;2024-03-22T05:02:52;101597.66;;;20.06;58.42
48200;BME280;33990;44.602;10.976;2024-03-22T05:05:18;101595.94;;;20.05;58.47
48200;BME280;33990;44.602;10.976;2024-03-22T05:07:45;101600.47;;;20.05;58.28
48200;BME280;33990;44.602;10.976;2024-03-22T05:10:12;101604.97;;;20.04;58.42
48200;BME280;33990;44.602;10.976;2024-03-22T05:12:38;101604.97;;;20.04;58.38
48200;BME280;33990;44.602;10.976;2024-03-22T05:15:06;101600.59;;;20.03;58.27
48200;BME280;33990;44.602;10.976;2024-03-22T05:17:32;101603.28;;;20.03;58.20
48200;BME280;33990;44.602;10.976;2024-03-22T05:19:59;101601.56;;;20.02;58.21
48200;BME280;33990;44.602;10.976;2024-03-22T05:22:26;101596.19;;;20.02;58.12
48200;BME280;33990;44.602;10.976;2024-03-22T05:24:52;101605.97;;;20.03;58.23
48200;BME280;33990;44.602;10.976;2024-03-22T05:27:18;101601.56;;;20.02;57.99
48200;BME280;33990;44.602;10.976;2024-03-22T05:29:44;101594.47;;;20.01;58.14
48200;BME280;33990;44.602;10.976;2024-03-22T05:32:11;101599.84;;;20.01;58.11
48200;BME280;33990;44.602;10.976;2024-03-22T05:34:37;101594.47;;;20.01;57.96
48200;BME280;33990;44.602;10.976;2024-03-22T05:37:03;101595.44;;;20.00;57.95
48200;BME280;33990;44.602;10.976;2024-03-22T05:39:30;101595.44;;;20.00;57.93
48200;BME280;33990;44.602;10.976;2024-03-22T05:41:56;101592.75;;;20.00;57.65
48200;BME280;33990;44.602;10.976;2024-03-22T05:44:22;101588.22;;;20.00;57.77
48200;BME280;33990;44.602;10.976;2024-03-22T05:46:48;101585.53;;;20.00;57.69
48200;BME280;33990;44.602;10.976;2024-03-22T05:49:16;101587.38;;;20.00;57.50
48200;BME280;33990;44.602;10.976;2024-03-22T05:51:42;101580.28;;;19.99;57.58
48200;BME280;33990;44.602;10.976;2024-03-22T05:54:09;101569.53;;;19.99;57.70
48200;BME280;33990;44.602;10.976;2024-03-22T05:56:35;101572.22;;;19.99;57.38
48200;BME280;33990;44.602;10.976;2024-03-22T05:59:01;101562.47;;;19.98;57.43
48200;BME280;33990;44.602;10.976;2024-03-22T06:01:28;101571.38;;;19.98;57.27
48200;BME280;33990;44.602;10.976;2024-03-22T06:03:54;101574.91;;;19.99;57.16
48200;BME280;33990;44.602;10.976;2024-03-22T06:06:20;101574.91;;;19.99;57.07
48200;BME280;33990;44.602;10.976;2024-03-22T06:08:52;101573.09;;;19.99;56.91
48200;BME280;33990;44.602;10.976;2024-03-22T06:11:20;101574.78;;;20.00;56.60
48200;BME280;33990;44.602;10.976;2024-03-22T06:13:47;101581.03;;;20.01;56.15
48200;BME280;33990;44.602;10.976;2024-03-22T06:16:14;101582.75;;;20.02;55.98
48200;BME280;33990;44.602;10.976;2024-03-22T06:18:41;101580.06;;;20.02;55.98
48200;BME280;33990;44.602;10.976;2024-03-22T06:21:07;101588.84;;;20.04;55.59
48200;BME280;33990;44.602;10.976;2024-03-22T06:23:33;101584.47;;;20.03;55.59
48200;BME280;33990;44.602;10.976;2024-03-22T06:26:00;101587.88;;;20.05;55.32
48200;BME280;33990;44.602;10.976;2024-03-22T06:28:27;101594.13;;;20.06;55.19
48200;BME280;33990;44.602;10.976;2024-03-22T06:30:54;101597.66;;;20.06;55.07
48200;BME280;33990;44.602;10.976;2024-03-22T06:33:20;101593.16;;;20.07;55.04
48200;BME280;33990;44.602;10.976;2024-03-22T06:35:47;101592.28;;;20.06;54.90
48200;BME280;33990;44.602;10.976;2024-03-22T06:38:13;101588.63;;;20.07;54.89
48200;BME280;33990;44.602;10.976;2024-03-22T06:40:40;101593.00;;;20.08;54.68
48200;BME280;33990;44.602;10.976;2024-03-22T06:43:06;101598.41;;;20.08;54.71
48200;BME280;33990;44.602;10.976;2024-03-22T06:45:32;101601.94;;;20.09;54.77
48200;BME280;33990;44.602;10.976;2024-03-22T06:47:59;101597.41;;;20.09;54.88
48200;BME280;33990;44.602;10.976;2024-03-22T06:50:25;101604.53;;;20.10;54.68
48200;BME280;33990;44.602;10.976;2024-03-22T06:52:54;101606.38;;;20.10;54.71
48200;BME280;33990;44.602;10.976;2024-03-22T06:55:20;101604.53;;;20.10;54.75
48200;BME280;33990;44.602;10.976;2024-03-22T06:57:48;101613.44;;;20.11;54.62
48200;BME280;33990;44.602;10.976;2024-03-22T07:00:16;101618.81;;;20.11;54.65
48200;BME280;33990;44.602;10.976;2024-03-22T07:02:42;101615.28;;;20.10;54.57
48200;BME280;33990;44.602;10.976;2024-03-22T07:05:09;101621.50;;;20.11;54.68
48200;BME280;33990;44.602;10.976;2024-03-22T07:07:35;101626.03;;;20.10;54.76
48200;BME280;33990;44.602;10.976;2024-03-22T07:10:03;101617.97;;;20.10;54.79
48200;BME280;33990;44.602;10.976;2024-03-22T07:12:29;101616.13;;;20.11;54.90
48200;BME280;33990;44.602;10.976;2024-03-22T07:14:55;101624.19;;;20.11;54.88
48200;BME280;33990;44.602;10.976;2024-03-22T07:17:22;101630.44;;;20.11;54.80
48200;BME280;33990;44.602;10.976;2024-03-22T07:19:51;101633.97;;;20.12;54.81
48200;BME280;33990;44.602;10.976;2024-03-22T07:22:18;101632.13;;;20.12;55.00
48200;BME280;33990;44.602;10.976;2024-03-22T07:24:45;101630.28;;;20.13;55.16
48200;BME280;33990;44.602;10.976;2024-03-22T07:27:11;101635.56;;;20.14;55.46
48200;BME280;33990;44.602;10.976;2024-03-22T07:29:38;101635.56;;;20.14;55.34
48200;BME280;33990;44.602;10.976;2024-03-22T07:32:04;101644.38;;;20.16;55.27
48200;BME280;33990;44.602;10.976;2024-03-22T07:34:31;101643.63;;;20.14;55.21
48200;BME280;33990;44.602;10.976;2024-03-22T07:36:58;101647.06;;;20.16;55.22
48200;BME280;33990;44.602;10.976;2024-03-22T07:39:25;101645.13;;;20.18;55.40
48200;BME280;33990;44.602;10.976;2024-03-22T07:41:51;101649.38;;;20.21;55.52
48200;BME280;33990;44.602;10.976;2024-03-22T07:44:17;101653.44;;;20.27;55.38
48200;BME280;33990;44.602;10.976;2024-03-22T07:46:46;101655.78;;;20.31;55.07
48200;BME280;33990;44.602;10.976;2024-03-22T07:49:12;101660.81;;;20.36;55.24
48200;BME280;33990;44.602;10.976;2024-03-22T07:51:39;101657.88;;;20.39;54.97
48200;BME280;33990;44.602;10.976;2024-03-22T07:54:08;101662.91;;;20.43;54.89
48200;BME280;33990;44.602;10.976;2024-03-22T07:56:45;101656.53;;;20.44;54.93
48200;BME280;33990;44.602;10.976;2024-03-22T07:59:12;101662.66;;;20.46;54.74
48200;BME280;33990;44.602;10.976;2024-03-22T08:01:38;101658.91;;;20.49;54.84
48200;BME280;33990;44.602;10.976;2024-03-22T08:04:04;101665.13;;;20.49;54.55
48200;BME280;33990;44.602;10.976;2024-03-22T08:06:31;101658.81;;;20.51;54.85
48200;BME280;33990;44.602;10.976;2024-03-22T08:08:57;101654.13;;;20.53;54.99
48200;BME280;33990;44.602;10.976;2024-03-22T08:11:24;101649.38;;;20.56;55.03
48200;BME280;33990;44.602;10.976;2024-03-22T08:13:50;101652.91;;;20.57;55.07
48200;BME280;33990;44.602;10.976;2024-03-22T08:16:16;101653.06;;;20.55;55.05
48200;BME280;33990;44.602;10.976;2024-03-22T08:18:42;101654.91;;;20.55;55.00
48200;BME280;33990;44.602;10.976;2024-03-22T08:21:09;101655.00;;;20.53;55.08
48200;BME280;33990;44.602;10.976;2024-03-22T08:23:35;101655.97;;;20.52;55.14
48200;BME280;33990;44.602;10.976;2024-03-22T08:26:01;101658.66;;;20.52;55.30
48200;BME280;33990;44.602;10.976;2024-03-22T08:28:28;101652.44;;;20.52;55.28
48200;BME280;33990;44.602;10.976;2024-03-22T08:30:54;101640.59;;;20.54;55.30
48200;BME280;33990;44.602;10.976;2024-03-22T08:33:20;101643.28;;;20.54;55.31
48200;BME280;33990;44.602;10.976;2024-03-22T08:35:47;101645.09;;;20.54;55.13
48200;BME280;33990;44.602;10.976;2024-03-22T08:38:14;101644.13;;;20.55;55.25
48200;BME280;33990;44.602;10.976;2024-03-22T08:40:40;101644.00;;;20.56;55.43
48200;BME280;33990;44.602;10.976;2024-03-22T08:43:07;101651.09;;;20.57;55.32
48200;BME280;33990;44.602;10.976;2024-03-22T08:45:33;101648.41;;;20.57;55.07
48200;BME280;33990;44.602;10.976;2024-03-22T08:48:00;101650.13;;;20.58;55.07
48200;BME280;33990;44.602;10.976;2024-03-22T08:50:26;101655.50;;;20.58;55.25
48200;BME280;33990;44.602;10.976;2024-03-22T08:52:52;101645.59;;;20.59;55.14
48200;BME280;33990;44.602;10.976;2024-03-22T08:55:19;101647.31;;;20.60;55.04
48200;BME280;33990;44.602;10.976;2024-03-22T08:57:45;101644.63;;;20.60;55.20
48200;BME280;33990;44.602;10.976;2024-03-22T09:00:12;101652.69;;;20.60;55.21
48200;BME280;33990;44.602;10.976;2024-03-22T09:02:38;101640.94;;;20.61;55.22
48200;BME280;33990;44.602;10.976;2024-03-22T09:05:05;101642.66;;;20.62;55.19
48200;BME280;33990;44.602;10.976;2024-03-22T09:07:32;101645.25;;;20.63;55.11
48200;BME280;33990;44.602;10.976;2024-03-22T09:09:58;101638.88;;;20.64;55.25
48200;BME280;33990;44.602;10.976;2024-03-22T09:12:24;101640.34;;;20.68;55.07
48200;BME280;33990;44.602;10.976;2024-03-22T09:14:50;101642.81;;;20.71;55.04
48200;BME280;33990;44.602;10.976;2024-03-22T09:17:17;101640.09;;;20.71;55.28
48200;BME280;33990;44.602;10.976;2024-03-22T09:19:44;101634.72;;;20.71;54.92
48200;BME280;33990;44.602;10.976;2024-03-22T09:22:11;101633.97;;;20.69;55.03
48200;BME280;33990;44.602;10.976;2024-03-22T09:24:37;101627.03;;;20.67;54.96
48200;BME280;33990;44.602;10.976;2024-03-22T09:27:03;101628.72;;;20.68;54.91
48200;BME280;33990;44.602;10.976;2024-03-22T09:29:35;101635.94;;;20.67;54.79
48200;BME280;33990;44.602;10.976;2024-03-22T09:32:02;101637.78;;;20.67;54.83
48200;BME280;33990;44.602;10.976;2024-03-22T09:34:28;101635.19;;;20.65;54.74
48200;BME280;33990;44.602;10.976;2024-03-22T09:36:56;101633.50;;;20.64;54.87
48200;BME280;33990;44.602;10.976;2024-03-22T09:39:25;101633.50;;;20.64;54.88
48200;BME280;33990;44.602;10.976;2024-03-22T09:41:55;101635.31;;;20.64;54.76
48200;BME280;33990;44.602;10.976;2024-03-22T09:44:23;101633.50;;;20.64;54.79
48200;BME280;33990;44.602;10.976;2024-03-22T09:46:50;101627.38;;;20.62;54.88
48200;BME280;33990;44.602;10.976;2024-03-22T09:49:16;101634.47;;;20.63;54.80
48200;BME280;33990;44.602;10.976;2024-03-22T09:51:43;101627.38;;;20.62;54.74
48200;BME280;33990;44.602;10.976;2024-03-22T09:54:13;101629.09;;;20.63;54.76
48200;BME280;33990;44.602;10.976;2024-03-22T09:56:39;101624.69;;;20.62;54.59
48200;BME280;33990;44.602;10.976;2024-03-22T09:59:06;101622.00;;;20.62;54.51
48200;BME280;33990;44.602;10.976;2024-03-22T10:01:36;101623.81;;;20.62;54.59
48200;BME280;33990;44.602;10.976;2024-03-22T10:04:03;101624.81;;;20.61;54.61
48200;BME280;33990;44.602;10.976;2024-03-22T10:06:30;101614.78;;;20.63;54.57
48200;BME280;33990;44.602;10.976;2024-03-22T10:08:58;101621.75;;;20.65;54.54
48200;BME280;33990;44.602;10.976;2024-03-22T10:11:26;101615.13;;;20.69;54.62
48200;BME280;33990;44.602;10.976;2024-03-22T10:13:53;101612.44;;;20.69;54.52
48200;BME280;33990;44.602;10.976;2024-03-22T10:16:24;101603.53;;;20.69;54.53
48200;BME280;33990;44.602;10.976;2024-03-22T10:18:51;101604.50;;;20.68;54.44
48200;BME280;33990;44.602;10.976;2024-03-22T10:21:18;101604.50;;;20.68;54.74
48200;BME280;33990;44.602;10.976;2024-03-22T10:23:44;101601.97;;;20.66;54.53
48200;BME280;33990;44.602;10.976;2024-03-22T10:26:13;101591.91;;;20.68;54.58
48200;BME280;33990;44.602;10.976;2024-03-22T10:28:46;101597.28;;;20.68;54.65
48200;BME280;33990;44.602;10.976;2024-03-22T10:31:13;101592.91;;;20.67;54.70
48200;BME280;33990;44.602;10.976;2024-03-22T10:33:44;101593.00;;;20.66;54.66
48200;BME280;33990;44.602;10.976;2024-03-22T10:36:11;101585.06;;;20.64;54.62
48200;BME280;33990;44.602;10.976;2024-03-22T10:38:39;101584.06;;;20.65;54.71
48200;BME280;33990;44.602;10.976;2024-03-22T10:41:06;101581.38;;;20.65;54.62
48200;BME280;33990;44.602;10.976;2024-03-22T10:43:33;101588.59;;;20.65;54.59
48200;BME280;33990;44.602;10.976;2024-03-22T10:46:02;101578.84;;;20.64;54.63
48200;BME280;33990;44.602;10.976;2024-03-22T10:48:30;101569.91;;;20.63;54.33
48200;BME280;33990;44.602;10.976;2024-03-22T10:51:01;101572.59;;;20.63;54.27
48200;BME280;33990;44.602;10.976;2024-03-22T10:53:30;101566.38;;;20.63;54.44
48200;BME280;33990;44.602;10.976;2024-03-22T10:55:58;101558.28;;;20.63;54.48
48200;BME280;33990;44.602;10.976;2024-03-22T10:58:26;101552.06;;;20.62;54.65
48200;BME280;33990;44.602;10.976;2024-03-22T11:00:53;101554.75;;;20.62;54.56
48200;BME280;33990;44.602;10.976;2024-03-22T11:03:21;101544.00;;;20.62;54.63
48200;BME280;33990;44.602;10.976;2024-03-22T11:05:50;101557.44;;;20.62;54.71
48200;BME280;33990;44.602;10.976;2024-03-22T11:08:27;101548.38;;;20.63;54.66
48200;BME280;33990;44.602;10.976;2024-03-22T11:10:56;101545.69;;;20.63;54.56
48200;BME280;33990;44.602;10.976;2024-03-22T11:13:23;101547.53;;;20.63;54.57
48200;BME280;33990;44.602;10.976;2024-03-22T11:15:50;101538.63;;;20.62;54.50
48200;BME280;33990;44.602;10.976;2024-03-22T11:18:17;101535.91;;;20.62;54.39
48200;BME280;33990;44.602;10.976;2024-03-22T11:20:44;101534.19;;;20.61;54.30
48200;BME280;33990;44.602;10.976;2024-03-22T11:23:13;101527.09;;;20.60;54.25
48200;BME280;33990;44.602;10.976;2024-03-22T11:25:40;101526.13;;;20.61;53.95
48200;BME280;33990;44.602;10.976;2024-03-22T11:28:06;101527.94;;;20.61;53.98
48200;BME280;33990;44.602;10.976;2024-03-22T11:30:33;101517.19;;;20.61;54.07
48200;BME280;33990;44.602;10.976;2024-03-22T11:33:01;101506.56;;;20.59;54.04
48200;BME280;33990;44.602;10.976;2024-03-22T11:35:28;101510.97;;;20.60;54.01
48200;BME280;33990;44.602;10.976;2024-03-22T11:37:54;101504.59;;;20.61;54.03
48200;BME280;33990;44.602;10.976;2024-03-22T11:40:23;101505.44;;;20.62;54.14
48200;BME280;33990;44.602;10.976;2024-03-22T11:42:51;101496.53;;;20.61;54.17
48200;BME280;33990;44.602;10.976;2024-03-22T11:45:19;101496.53;;;20.61;54.05
48200;BME280;33990;44.602;10.976;2024-03-22T11:47:48;101498.25;;;20.62;54.16
48200;BME280;33990;44.602;10.976;2024-03-22T11:50:15;101488.44;;;20.61;54.04
48200;BME280;33990;44.602;10.976;2024-03-22T11:52:42;101490.28;;;20.61;54.14
48200;BME280;33990;44.602;10.976;2024-03-22T11:55:13;101483.06;;;20.61;54.11
48200;BME280;33990;44.602;10.976;2024-03-22T11:57:39;101482.13;;;20.62;53.96
48200;BME280;33990;44.602;10.976;2024-03-22T12:00:06;101479.53;;;20.61;53.89
48200;BME280;33990;44.602;10.976;2024-03-22T12:02:40;101474.16;;;20.61;53.77
48200;BME280;33990;44.602;10.976;2024-03-22T12:05:07;101479.53;;;20.61;53.78
48200;BME280;33990;44.602;10.976;2024-03-22T12:07:36;101475.00;;;20.61;53.68
48200;BME280;33990;44.602;10.976;2024-03-22T12:10:04;101476.00;;;20.60;53.96
48200;BME280;33990;44.602;10.976;2024-03-22T12:12:30;101465.22;;;20.60;53.89
48200;BME280;33990;44.602;10.976;2024-03-22T12:14:56;101468.66;;;20.62;53.72
48200;BME280;33990;44.602;10.976;2024-03-22T12:17:22;101453.47;;;20.61;53.67
48200;BME280;33990;44.602;10.976;2024-03-22T12:19:49;101448.09;;;20.61;53.67
48200;BME280;33990;44.602;10.976;2024-03-22T12:22:15;101450.78;;;20.61;53.79
48200;BME280;33990;44.602;10.976;2024-03-22T12:24:41;101448.94;;;20.62;53.46
48200;BME280;33990;44.602;10.976;2024-03-22T12:27:08;101442.72;;;20.61;53.56
48200;BME280;33990;44.602;10.976;2024-03-22T12:29:34;101443.72;;;20.60;53.23
48200;BME280;33990;44.602;10.976;2024-03-22T12:32:02;101438.31;;;20.60;53.34
48200;BME280;33990;44.602;10.976;2024-03-22T12:34:30;101432.94;;;20.60;53.30
48200;BME280;33990;44.602;10.976;2024-03-22T12:36:56;101437.47;;;20.60;53.21
48200;BME280;33990;44.602;10.976;2024-03-22T12:39:23;101428.41;;;20.61;53.16